sensor_id;sensor_type;location;lat;lon;timestamp;temperature;humidity
75821;DHT22;64454;51.984;9.838;2023-07-31T00:00:25;18.70;1.00
75821;DHT22;64454;51.984;9.838;2023-07-31T00:02:52;18.80;1.00
75821;DHT22;64454;51.984;9.838;2023-07-31T00:05:21;18.80;1.00
75821;DHT22;64454;51.984;9.838;2023-07-31T00:07:48;18.70;1.00
75821;DHT22;64454;51.984;9.838;2023-07-31T00:10:16;18.80;1.00
75821;DHT22;64454;51.984;9.838;2023-07-31T00:12:45;18.70;1.00
75821;DHT22;64454;51.984;9.838;2023-07-31T00:15:13;18.70;1.00
75821;DHT22;64454;51.984;9.838;2023-07-31T00:17:40;18.70;1.00
75821;DHT22;64454;51.984;9.838;2023-07-31T00:20:08;18.60;1.00
75821;DHT22;64454;51.984;9.838;2023-07-31T00:22:36;18.70;1.00
75821;DHT22;64454;51.984;9.838;2023-07-31T00:25:03;18.70;1.00
75821;DHT22;64454;51.984;9.838;2023-07-31T00:27:33;18.70;1.00
75821;DHT22;64454;51.984;9.838;2023-07-31T00:30:00;18.50;16.90
75821;DHT22;64454;51.984;9.838;2023-07-31T00:32:27;18.60;31.30
75821;DHT22;64454;51.984;9.838;2023-07-31T00:34:54;18.50;43.20
75821;DHT22;64454;51.984;9.838;2023-07-31T00:37:21;18.40;49.60
75821;DHT22;64454;51.984;9.838;2023-07-31T00:39:48;18.30;71.20
75821;DHT22;64454;51.984;9.838;2023-07-31T00:42:15;18.40;82.50
75821;DHT22;64454;51.984;9.838;2023-07-31T00:44:43;18.40;99.90
75821;DHT22;64454;51.984;9.838;2023-07-31T00:47:11;18.40;92.00
75821;DHT22;64454;51.984;9.838;2023-07-31T00:49:38;18.50;99.90
75821;DHT22;64454;51.984;9.838;2023-07-31T00:52:05;18.60;99.90
75821;DHT22;64454;51.984;9.838;2023-07-31T00:54:33;18.40;99.90
75821;DHT22;64454;51.984;9.838;2023-07-31T00:57:00;18.30;99.90
75821;DHT22;64454;51.984;9.838;2023-07-31T00:59:27;18.40;99.90
75821;DHT22;64454;51.984;9.838;2023-07-31T01:01:56;18.30;99.90
75821;DHT22;64454;51.984;9.838;2023-07-31T01:04:23;18.40;99.90
75821;DHT22;64454;51.984;9.838;2023-07-31T01:06:55;18.40;99.90
75821;DHT22;64454;51.984;9.838;2023-07-31T01:09:36;18.40;99.90
75821;DHT22;64454;51.984;9.838;2023-07-31T01:12:16;18.50;99.90
75821;DHT22;64454;51.984;9.838;2023-07-31T01:14:51;18.50;99.90
75821;DHT22;64454;51.984;9.838;2023-07-31T01:17:35;18.50;99.90
75821;DHT22;64454;51.984;9.838;2023-07-31T01:20:05;18.40;99.90
75821;DHT22;64454;51.984;9.838;2023-07-31T01:22:59;18.40;99.90
75821;DHT22;64454;51.984;9.838;2023-07-31T01:25:59;18.40;99.90
75821;DHT22;64454;51.984;9.838;2023-07-31T01:28:40;18.20;99.90
75821;DHT22;64454;51.984;9.838;2023-07-31T01:31:16;18.00;99.90
75821;DHT22;64454;51.984;9.838;2023-07-31T01:33:47;18.00;99.90
75821;DHT22;64454;51.984;9.838;2023-07-31T01:36:15;18.20;99.90
75821;DHT22;64454;51.984;9.838;2023-07-31T01:38:43;18.10;99.90
75821;DHT22;64454;51.984;9.838;2023-07-31T01:41:11;18.10;99.90
75821;DHT22;64454;51.984;9.838;2023-07-31T01:43:38;18.00;99.90
75821;DHT22;64454;51.984;9.838;2023-07-31T01:46:05;18.00;99.90
75821;DHT22;64454;51.984;9.838;2023-07-31T01:48:32;18.00;99.90
75821;DHT22;64454;51.984;9.838;2023-07-31T01:51:02;18.10;99.90
75821;DHT22;64454;51.984;9.838;2023-07-31T01:53:30;18.10;99.90
75821;DHT22;64454;51.984;9.838;2023-07-31T01:55:58;18.00;99.90
75821;DHT22;64454;51.984;9.838;2023-07-31T01:58:26;17.90;99.90
75821;DHT22;64454;51.984;9.838;2023-07-31T02:00:53;18.00;99.90
75821;DHT22;64454;51.984;9.838;2023-07-31T02:03:20;18.00;99.90
75821;DHT22;64454;51.984;9.838;2023-07-31T02:05:48;18.00;99.90
75821;DHT22;64454;51.984;9.838;2023-07-31T02:08:16;18.00;99.90
75821;DHT22;64454;51.984;9.838;2023-07-31T02:10:43;17.90;99.90
75821;DHT22;64454;51.984;9.838;2023-07-31T02:13:10;17.90;99.90
75821;DHT22;64454;51.984;9.838;2023-07-31T02:15:38;17.80;99.90
75821;DHT22;64454;51.984;9.838;2023-07-31T02:18:05;17.90;99.90
75821;DHT22;64454;51.984;9.838;2023-07-31T02:20:34;17.90;99.90
75821;DHT22;64454;51.984;9.838;2023-07-31T02:23:01;17.80;99.90
75821;DHT22;64454;51.984;9.838;2023-07-31T02:25:29;17.80;99.90
75821;DHT22;64454;51.984;9.838;2023-07-31T02:27:56;17.90;99.90
75821;DHT22;64454;51.984;9.838;2023-07-31T02:30:23;18.00;99.90
75821;DHT22;64454;51.984;9.838;2023-07-31T02:32:51;18.10;99.90
75821;DHT22;64454;51.984;9.838;2023-07-31T02:35:18;18.30;99.90
75821;DHT22;64454;51.984;9.838;2023-07-31T02:37:45;18.40;99.90
75821;DHT22;64454;51.984;9.838;2023-07-31T02:40:12;18.40;99.90
75821;DHT22;64454;51.984;9.838;2023-07-31T02:42:39;18.40;99.90
75821;DHT22;64454;51.984;9.838;2023-07-31T02:45:07;18.20;99.90
75821;DHT22;64454;51.984;9.838;2023-07-31T02:47:35;18.20;99.90
75821;DHT22;64454;51.984;9.838;2023-07-31T02:50:04;18.20;99.90
75821;DHT22;64454;51.984;9.838;2023-07-31T02:52:31;18.30;99.90
75821;DHT22;64454;51.984;9.838;2023-07-31T02:54:58;18.20;99.90
75821;DHT22;64454;51.984;9.838;2023-07-31T02:57:25;18.00;99.90
75821;DHT22;64454;51.984;9.838;2023-07-31T02:59:52;18.00;99.90
75821;DHT22;64454;51.984;9.838;2023-07-31T03:02:19;18.10;99.90
75821;DHT22;64454;51.984;9.838;2023-07-31T03:04:46;18.10;99.90
75821;DHT22;64454;51.984;9.838;2023-07-31T03:07:14;18.20;99.90
75821;DHT22;64454;51.984;9.838;2023-07-31T03:09:41;18.20;99.90
75821;DHT22;64454;51.984;9.838;2023-07-31T03:12:09;18.20;99.90
75821;DHT22;64454;51.984;9.838;2023-07-31T03:14:35;18.10;99.90
75821;DHT22;64454;51.984;9.838;2023-07-31T03:17:03;18.20;99.90
75821;DHT22;64454;51.984;9.838;2023-07-31T03:19:31;18.20;99.90
75821;DHT22;64454;51.984;9.838;2023-07-31T03:21:58;18.30;99.90
75821;DHT22;64454;51.984;9.838;2023-07-31T03:24:26;18.20;99.90
75821;DHT22;64454;51.984;9.838;2023-07-31T03:26:54;18.20;99.90
75821;DHT22;64454;51.984;9.838;2023-07-31T03:29:22;18.20;99.90
75821;DHT22;64454;51.984;9.838;2023-07-31T03:31:49;18.30;99.90
75821;DHT22;64454;51.984;9.838;2023-07-31T03:34:17;18.30;99.90
75821;DHT22;64454;51.984;9.838;2023-07-31T03:36:46;18.30;99.90
75821;DHT22;64454;51.984;9.838;2023-07-31T03:39:13;18.40;99.90
75821;DHT22;64454;51.984;9.838;2023-07-31T03:41:42;18.40;99.90
75821;DHT22;64454;51.984;9.838;2023-07-31T03:44:09;18.30;99.90
75821;DHT22;64454;51.984;9.838;2023-07-31T03:46:36;18.30;99.90
75821;DHT22;64454;51.984;9.838;2023-07-31T03:49:03;18.30;99.90
75821;DHT22;64454;51.984;9.838;2023-07-31T03:51:30;18.30;99.90
75821;DHT22;64454;51.984;9.838;2023-07-31T03:53:57;18.40;99.90
75821;DHT22;64454;51.984;9.838;2023-07-31T03:56:24;18.30;99.90
75821;DHT22;64454;51.984;9.838;2023-07-31T03:58:52;18.40;99.90
75821;DHT22;64454;51.984;9.838;2023-07-31T04:01:20;18.40;99.90
75821;DHT22;64454;51.984;9.838;2023-07-31T04:03:46;18.00;99.90
75821;DHT22;64454;51.984;9.838;2023-07-31T04:06:13;17.90;99.90
75821;DHT22;64454;51.984;9.838;2023-07-31T04:08:43;17.90;99.90
75821;DHT22;64454;51.984;9.838;2023-07-31T04:11:10;17.90;99.90
75821;DHT22;64454;51.984;9.838;2023-07-31T04:13:37;18.00;99.90
75821;DHT22;64454;51.984;9.838;2023-07-31T04:16:06;18.00;99.90
75821;DHT22;64454;51.984;9.838;2023-07-31T04:18:33;18.00;99.90
75821;DHT22;64454;51.984;9.838;2023-07-31T04:21:00;18.00;99.90
75821;DHT22;64454;51.984;9.838;2023-07-31T04:23:28;18.10;99.90
75821;DHT22;64454;51.984;9.838;2023-07-31T04:25:55;18.10;99.90
75821;DHT22;64454;51.984;9.838;2023-07-31T04:28:22;18.10;99.90
75821;DHT22;64454;51.984;9.838;2023-07-31T04:30:51;18.00;99.90
75821;DHT22;64454;51.984;9.838;2023-07-31T04:33:19;18.00;99.90
75821;DHT22;64454;51.984;9.838;2023-07-31T04:35:50;18.00;99.90
75821;DHT22;64454;51.984;9.838;2023-07-31T04:38:18;17.80;99.90
75821;DHT22;64454;51.984;9.838;2023-07-31T04:40:45;17.80;99.90
75821;DHT22;64454;51.984;9.838;2023-07-31T04:43:13;17.80;99.90
75821;DHT22;64454;51.984;9.838;2023-07-31T04:45:42;17.80;99.90
75821;DHT22;64454;51.984;9.838;2023-07-31T04:48:12;17.70;99.90
75821;DHT22;64454;51.984;9.838;2023-07-31T04:50:41;17.80;99.90
75821;DHT22;64454;51.984;9.838;2023-07-31T04:53:08;17.90;99.90
75821;DHT22;64454;51.984;9.838;2023-07-31T04:55:35;17.80;99.90
75821;DHT22;64454;51.984;9.838;2023-07-31T04:58:02;17.90;99.90
75821;DHT22;64454;51.984;9.838;2023-07-31T05:00:28;18.00;99.90
75821;DHT22;64454;51.984;9.838;2023-07-31T05:02:55;17.90;99.90
75821;DHT22;64454;51.984;9.838;2023-07-31T05:05:22;18.00;99.90
75821;DHT22;64454;51.984;9.838;2023-07-31T05:07:51;18.10;99.90
75821;DHT22;64454;51.984;9.838;2023-07-31T05:10:18;18.20;99.90
75821;DHT22;64454;51.984;9.838;2023-07-31T05:12:45;18.10;99.90
75821;DHT22;64454;51.984;9.838;2023-07-31T05:15:11;18.10;99.90
75821;DHT22;64454;51.984;9.838;2023-07-31T05:17:38;18.10;99.90
75821;DHT22;64454;51.984;9.838;2023-07-31T05:20:07;18.20;99.90
75821;DHT22;64454;51.984;9.838;2023-07-31T05:22:34;18.30;99.90
75821;DHT22;64454;51.984;9.838;2023-07-31T05:25:03;18.20;99.90
75821;DHT22;64454;51.984;9.838;2023-07-31T05:27:31;18.20;99.90
75821;DHT22;64454;51.984;9.838;2023-07-31T05:29:58;18.20;99.90
75821;DHT22;64454;51.984;9.838;2023-07-31T05:32:25;18.20;99.90
75821;DHT22;64454;51.984;9.838;2023-07-31T05:34:53;18.10;99.90
75821;DHT22;64454;51.984;9.838;2023-07-31T05:37:20;18.00;99.90
75821;DHT22;64454;51.984;9.838;2023-07-31T05:39:47;18.00;99.90
75821;DHT22;64454;51.984;9.838;2023-07-31T05:42:15;17.90;99.90
75821;DHT22;64454;51.984;9.838;2023-07-31T05:44:42;18.00;99.90
75821;DHT22;64454;51.984;9.838;2023-07-31T05:47:09;18.00;99.90
75821;DHT22;64454;51.984;9.838;2023-07-31T05:49:36;18.00;99.90
75821;DHT22;64454;51.984;9.838;2023-07-31T05:52:04;18.00;99.90
75821;DHT22;64454;51.984;9.838;2023-07-31T05:54:32;18.00;99.90
75821;DHT22;64454;51.984;9.838;2023-07-31T05:56:59;17.90;99.90
75821;DHT22;64454;51.984;9.838;2023-07-31T05:59:27;17.90;99.90
75821;DHT22;64454;51.984;9.838;2023-07-31T06:01:55;18.00;99.90
75821;DHT22;64454;51.984;9.838;2023-07-31T06:04:21;18.10;99.90
75821;DHT22;64454;51.984;9.838;2023-07-31T06:06:50;18.10;99.90
75821;DHT22;64454;51.984;9.838;2023-07-31T06:09:19;18.00;99.90
75821;DHT22;64454;51.984;9.838;2023-07-31T06:11:47;18.10;99.90
75821;DHT22;64454;51.984;9.838;2023-07-31T06:14:15;18.10;99.90
75821;DHT22;64454;51.984;9.838;2023-07-31T06:16:45;18.20;99.90
75821;DHT22;64454;51.984;9.838;2023-07-31T06:19:12;18.20;99.90
75821;DHT22;64454;51.984;9.838;2023-07-31T06:21:40;18.20;99.90
75821;DHT22;64454;51.984;9.838;2023-07-31T06:24:08;18.10;99.90
75821;DHT22;64454;51.984;9.838;2023-07-31T06:26:35;18.10;99.90
75821;DHT22;64454;51.984;9.838;2023-07-31T06:29:02;18.00;99.90
75821;DHT22;64454;51.984;9.838;2023-07-31T06:31:29;18.10;99.90
75821;DHT22;64454;51.984;9.838;2023-07-31T06:33:57;18.20;99.90
75821;DHT22;64454;51.984;9.838;2023-07-31T06:36:24;18.20;99.90
75821;DHT22;64454;51.984;9.838;2023-07-31T06:38:51;18.20;99.90
75821;DHT22;64454;51.984;9.838;2023-07-31T06:41:18;18.20;99.90
75821;DHT22;64454;51.984;9.838;2023-07-31T06:43:45;18.30;99.90
75821;DHT22;64454;51.984;9.838;2023-07-31T06:46:12;18.40;99.90
75821;DHT22;64454;51.984;9.838;2023-07-31T06:48:39;18.40;99.90
75821;DHT22;64454;51.984;9.838;2023-07-31T06:51:07;18.50;99.90
75821;DHT22;64454;51.984;9.838;2023-07-31T06:53:34;18.50;99.90
75821;DHT22;64454;51.984;9.838;2023-07-31T06:56:01;18.50;99.90
75821;DHT22;64454;51.984;9.838;2023-07-31T06:58:28;18.60;99.90
75821;DHT22;64454;51.984;9.838;2023-07-31T07:00:54;18.70;99.90
75821;DHT22;64454;51.984;9.838;2023-07-31T07:03:21;18.70;99.90
75821;DHT22;64454;51.984;9.838;2023-07-31T07:05:48;18.80;89.80
75821;DHT22;64454;51.984;9.838;2023-07-31T07:08:16;18.90;86.40
75821;DHT22;64454;51.984;9.838;2023-07-31T07:10:43;18.90;33.00
75821;DHT22;64454;51.984;9.838;2023-07-31T07:13:10;18.80;74.70
75821;DHT22;64454;51.984;9.838;2023-07-31T07:15:38;18.80;56.10
75821;DHT22;64454;51.984;9.838;2023-07-31T07:18:04;18.70;64.00
75821;DHT22;64454;51.984;9.838;2023-07-31T07:20:31;18.70;33.30
75821;DHT22;64454;51.984;9.838;2023-07-31T07:22:58;19.00;29.40
75821;DHT22;64454;51.984;9.838;2023-07-31T07:25:27;19.00;33.10
75821;DHT22;64454;51.984;9.838;2023-07-31T07:27:53;19.10;32.80
75821;DHT22;64454;51.984;9.838;2023-07-31T07:30:20;19.10;6.70
75821;DHT22;64454;51.984;9.838;2023-07-31T07:32:49;19.20;25.40
75821;DHT22;64454;51.984;9.838;2023-07-31T07:35:16;19.30;1.00
75821;DHT22;64454;51.984;9.838;2023-07-31T07:37:43;19.40;12.90
75821;DHT22;64454;51.984;9.838;2023-07-31T07:40:10;19.40;1.00
75821;DHT22;64454;51.984;9.838;2023-07-31T07:42:38;19.30;1.00
75821;DHT22;64454;51.984;9.838;2023-07-31T07:45:06;19.10;1.00
75821;DHT22;64454;51.984;9.838;2023-07-31T07:47:34;19.10;24.70
75821;DHT22;64454;51.984;9.838;2023-07-31T07:50:01;19.10;24.70
75821;DHT22;64454;51.984;9.838;2023-07-31T07:52:28;19.20;37.20
75821;DHT22;64454;51.984;9.838;2023-07-31T07:54:55;19.30;20.70
75821;DHT22;64454;51.984;9.838;2023-07-31T07:57:22;19.30;4.80
75821;DHT22;64454;51.984;9.838;2023-07-31T07:59:50;19.30;6.70
75821;DHT22;64454;51.984;9.838;2023-07-31T08:02:17;19.20;31.50
75821;DHT22;64454;51.984;9.838;2023-07-31T08:04:44;19.20;49.30
75821;DHT22;64454;51.984;9.838;2023-07-31T08:07:11;19.30;42.90
75821;DHT22;64454;51.984;9.838;2023-07-31T08:09:38;19.30;13.20
75821;DHT22;64454;51.984;9.838;2023-07-31T08:12:06;19.20;30.30
75821;DHT22;64454;51.984;9.838;2023-07-31T08:14:33;19.20;33.80
75821;DHT22;64454;51.984;9.838;2023-07-31T08:17:02;19.20;33.90
75821;DHT22;64454;51.984;9.838;2023-07-31T08:19:30;19.30;39.40
75821;DHT22;64454;51.984;9.838;2023-07-31T08:21:57;19.20;57.70
75821;DHT22;64454;51.984;9.838;2023-07-31T08:24:24;19.30;58.30
75821;DHT22;64454;51.984;9.838;2023-07-31T08:26:50;19.20;74.90
75821;DHT22;64454;51.984;9.838;2023-07-31T08:29:19;19.30;99.90
75821;DHT22;64454;51.984;9.838;2023-07-31T08:31:46;19.40;99.90
75821;DHT22;64454;51.984;9.838;2023-07-31T08:34:16;19.40;99.90
75821;DHT22;64454;51.984;9.838;2023-07-31T08:36:45;19.30;99.90
75821;DHT22;64454;51.984;9.838;2023-07-31T08:39:11;19.40;99.90
75821;DHT22;64454;51.984;9.838;2023-07-31T08:41:39;19.60;99.90
75821;DHT22;64454;51.984;9.838;2023-07-31T08:44:07;19.70;99.90
75821;DHT22;64454;51.984;9.838;2023-07-31T08:46:34;19.80;86.10
75821;DHT22;64454;51.984;9.838;2023-07-31T08:49:04;19.90;60.70
75821;DHT22;64454;51.984;9.838;2023-07-31T08:51:34;19.70;54.50
75821;DHT22;64454;51.984;9.838;2023-07-31T08:54:01;19.60;56.90
75821;DHT22;64454;51.984;9.838;2023-07-31T08:56:31;19.60;71.90
75821;DHT22;64454;51.984;9.838;2023-07-31T08:58:59;19.40;82.70
75821;DHT22;64454;51.984;9.838;2023-07-31T09:01:30;19.20;99.90
75821;DHT22;64454;51.984;9.838;2023-07-31T09:04:04;19.10;99.90
75821;DHT22;64454;51.984;9.838;2023-07-31T09:06:34;19.00;99.90
75821;DHT22;64454;51.984;9.838;2023-07-31T09:09:01;19.20;99.90
75821;DHT22;64454;51.984;9.838;2023-07-31T09:11:29;19.10;99.90
75821;DHT22;64454;51.984;9.838;2023-07-31T09:13:57;19.10;99.90
75821;DHT22;64454;51.984;9.838;2023-07-31T09:16:28;19.20;99.90
75821;DHT22;64454;51.984;9.838;2023-07-31T09:18:57;19.20;99.90
75821;DHT22;64454;51.984;9.838;2023-07-31T09:21:27;19.00;99.90
75821;DHT22;64454;51.984;9.838;2023-07-31T09:23:55;19.00;99.90
75821;DHT22;64454;51.984;9.838;2023-07-31T09:26:29;18.90;99.90
75821;DHT22;64454;51.984;9.838;2023-07-31T09:28:57;19.00;99.90
75821;DHT22;64454;51.984;9.838;2023-07-31T09:31:38;19.00;99.90
75821;DHT22;64454;51.984;9.838;2023-07-31T09:34:06;19.20;99.90
75821;DHT22;64454;51.984;9.838;2023-07-31T09:36:40;19.30;99.90
75821;DHT22;64454;51.984;9.838;2023-07-31T09:39:10;19.50;99.90
75821;DHT22;64454;51.984;9.838;2023-07-31T09:41:39;19.50;99.90
75821;DHT22;64454;51.984;9.838;2023-07-31T09:44:07;19.50;99.90
75821;DHT22;64454;51.984;9.838;2023-07-31T09:46:35;19.60;99.90
75821;DHT22;64454;51.984;9.838;2023-07-31T09:49:07;19.70;33.40
75821;DHT22;64454;51.984;9.838;2023-07-31T09:51:36;19.90;56.70
75821;DHT22;64454;51.984;9.838;2023-07-31T09:54:10;20.00;43.50
75821;DHT22;64454;51.984;9.838;2023-07-31T09:56:43;20.00;29.90
75821;DHT22;64454;51.984;9.838;2023-07-31T09:59:12;20.10;40.20
75821;DHT22;64454;51.984;9.838;2023-07-31T10:01:43;20.10;11.70
75821;DHT22;64454;51.984;9.838;2023-07-31T10:04:12;20.20;30.40
75821;DHT22;64454;51.984;9.838;2023-07-31T10:06:42;20.40;15.10
75821;DHT22;64454;51.984;9.838;2023-07-31T10:09:13;20.30;1.00
75821;DHT22;64454;51.984;9.838;2023-07-31T10:11:47;20.40;8.40
75821;DHT22;64454;51.984;9.838;2023-07-31T10:14:21;20.40;1.00
75821;DHT22;64454;51.984;9.838;2023-07-31T10:16:50;20.50;1.00
75821;DHT22;64454;51.984;9.838;2023-07-31T10:19:20;20.60;1.00
75821;DHT22;64454;51.984;9.838;2023-07-31T10:21:48;21.00;1.00
75821;DHT22;64454;51.984;9.838;2023-07-31T10:24:19;21.50;1.00
75821;DHT22;64454;51.984;9.838;2023-07-31T10:26:48;21.90;1.00
75821;DHT22;64454;51.984;9.838;2023-07-31T10:29:19;22.20;1.00
75821;DHT22;64454;51.984;9.838;2023-07-31T10:31:50;22.10;1.00
75821;DHT22;64454;51.984;9.838;2023-07-31T10:34:20;22.10;1.00
75821;DHT22;64454;51.984;9.838;2023-07-31T10:36:47;22.10;1.00
75821;DHT22;64454;51.984;9.838;2023-07-31T10:39:35;21.80;1.00
75821;DHT22;64454;51.984;9.838;2023-07-31T10:42:10;21.80;1.00
75821;DHT22;64454;51.984;9.838;2023-07-31T10:44:38;21.60;1.00
75821;DHT22;64454;51.984;9.838;2023-07-31T10:47:10;21.60;1.00
75821;DHT22;64454;51.984;9.838;2023-07-31T10:49:44;21.80;1.00
75821;DHT22;64454;51.984;9.838;2023-07-31T10:52:13;22.00;1.00
75821;DHT22;64454;51.984;9.838;2023-07-31T10:54:41;22.00;1.00
75821;DHT22;64454;51.984;9.838;2023-07-31T10:57:19;22.10;1.00
75821;DHT22;64454;51.984;9.838;2023-07-31T10:59:47;22.50;1.00
75821;DHT22;64454;51.984;9.838;2023-07-31T11:02:25;22.90;1.00
75821;DHT22;64454;51.984;9.838;2023-07-31T11:05:08;23.30;1.00
75821;DHT22;64454;51.984;9.838;2023-07-31T11:07:48;23.30;1.00
75821;DHT22;64454;51.984;9.838;2023-07-31T11:10:20;23.20;1.00
75821;DHT22;64454;51.984;9.838;2023-07-31T11:12:51;23.20;1.00
75821;DHT22;64454;51.984;9.838;2023-07-31T11:15:18;23.50;1.00
75821;DHT22;64454;51.984;9.838;2023-07-31T11:17:45;23.60;1.00
75821;DHT22;64454;51.984;9.838;2023-07-31T11:20:11;23.60;1.00
75821;DHT22;64454;51.984;9.838;2023-07-31T11:22:38;23.80;1.00
75821;DHT22;64454;51.984;9.838;2023-07-31T11:25:07;23.70;1.00
75821;DHT22;64454;51.984;9.838;2023-07-31T11:27:40;23.80;1.00
75821;DHT22;64454;51.984;9.838;2023-07-31T11:30:08;23.90;1.00
75821;DHT22;64454;51.984;9.838;2023-07-31T11:32:36;23.50;1.00
75821;DHT22;64454;51.984;9.838;2023-07-31T11:35:04;23.20;1.00
75821;DHT22;64454;51.984;9.838;2023-07-31T11:37:40;23.10;1.00
75821;DHT22;64454;51.984;9.838;2023-07-31T11:40:08;22.80;1.00
75821;DHT22;64454;51.984;9.838;2023-07-31T11:42:36;22.50;1.00
75821;DHT22;64454;51.984;9.838;2023-07-31T11:45:05;22.10;1.00
75821;DHT22;64454;51.984;9.838;2023-07-31T11:47:34;21.90;1.00
75821;DHT22;64454;51.984;9.838;2023-07-31T11:50:03;22.00;1.00
75821;DHT22;64454;51.984;9.838;2023-07-31T11:52:35;22.20;1.00
75821;DHT22;64454;51.984;9.838;2023-07-31T11:55:07;22.30;1.00
75821;DHT22;64454;51.984;9.838;2023-07-31T11:57:37;22.20;1.00
75821;DHT22;64454;51.984;9.838;2023-07-31T12:00:09;22.20;1.00
75821;DHT22;64454;51.984;9.838;2023-07-31T12:02:38;21.90;1.00
75821;DHT22;64454;51.984;9.838;2023-07-31T12:05:06;21.90;1.00
75821;DHT22;64454;51.984;9.838;2023-07-31T12:07:44;21.80;1.00
75821;DHT22;64454;51.984;9.838;2023-07-31T12:10:28;21.70;1.00
75821;DHT22;64454;51.984;9.838;2023-07-31T12:13:01;21.70;1.00
75821;DHT22;64454;51.984;9.838;2023-07-31T12:15:41;21.60;1.00
75821;DHT22;64454;51.984;9.838;2023-07-31T12:18:11;21.50;1.00
75821;DHT22;64454;51.984;9.838;2023-07-31T12:20:42;21.60;1.00
75821;DHT22;64454;51.984;9.838;2023-07-31T12:23:15;21.60;1.00
75821;DHT22;64454;51.984;9.838;2023-07-31T12:25:43;21.40;1.00
75821;DHT22;64454;51.984;9.838;2023-07-31T12:28:10;21.50;1.00
75821;DHT22;64454;51.984;9.838;2023-07-31T12:30:39;21.50;1.00
75821;DHT22;64454;51.984;9.838;2023-07-31T12:33:13;21.60;1.00
75821;DHT22;64454;51.984;9.838;2023-07-31T12:35:43;21.60;1.00
75821;DHT22;64454;51.984;9.838;2023-07-31T12:38:11;21.80;9.40
75821;DHT22;64454;51.984;9.838;2023-07-31T12:40:39;21.80;1.00
75821;DHT22;64454;51.984;9.838;2023-07-31T12:43:07;21.80;1.00
75821;DHT22;64454;51.984;9.838;2023-07-31T12:45:35;21.70;1.00
75821;DHT22;64454;51.984;9.838;2023-07-31T12:48:03;21.60;1.00
75821;DHT22;64454;51.984;9.838;2023-07-31T12:50:30;21.20;1.00
75821;DHT22;64454;51.984;9.838;2023-07-31T12:52:57;20.80;4.80
75821;DHT22;64454;51.984;9.838;2023-07-31T12:55:24;20.90;31.10
75821;DHT22;64454;51.984;9.838;2023-07-31T12:57:51;20.70;22.60
75821;DHT22;64454;51.984;9.838;2023-07-31T13:00:18;20.70;8.10
75821;DHT22;64454;51.984;9.838;2023-07-31T13:02:45;20.90;12.20
75821;DHT22;64454;51.984;9.838;2023-07-31T13:05:14;20.90;1.00
75821;DHT22;64454;51.984;9.838;2023-07-31T13:07:41;20.90;1.00
75821;DHT22;64454;51.984;9.838;2023-07-31T13:10:08;20.90;1.00
75821;DHT22;64454;51.984;9.838;2023-07-31T13:12:35;20.80;4.10
75821;DHT22;64454;51.984;9.838;2023-07-31T13:15:03;20.90;31.00
75821;DHT22;64454;51.984;9.838;2023-07-31T13:17:30;21.00;12.80
75821;DHT22;64454;51.984;9.838;2023-07-31T13:19:58;20.90;1.00
75821;DHT22;64454;51.984;9.838;2023-07-31T13:22:26;21.00;20.90
75821;DHT22;64454;51.984;9.838;2023-07-31T13:24:53;21.00;1.00
75821;DHT22;64454;51.984;9.838;2023-07-31T13:27:21;21.20;1.00
75821;DHT22;64454;51.984;9.838;2023-07-31T13:29:48;21.30;1.90
75821;DHT22;64454;51.984;9.838;2023-07-31T13:32:16;21.30;1.00
75821;DHT22;64454;51.984;9.838;2023-07-31T13:34:43;21.50;7.80
75821;DHT22;64454;51.984;9.838;2023-07-31T13:37:10;21.50;1.00
75821;DHT22;64454;51.984;9.838;2023-07-31T13:39:39;21.40;1.00
75821;DHT22;64454;51.984;9.838;2023-07-31T13:42:07;21.30;11.90
75821;DHT22;64454;51.984;9.838;2023-07-31T13:44:37;21.50;28.90
75821;DHT22;64454;51.984;9.838;2023-07-31T13:47:05;21.60;26.50
75821;DHT22;64454;51.984;9.838;2023-07-31T13:49:33;21.50;1.00
75821;DHT22;64454;51.984;9.838;2023-07-31T13:52:00;21.50;1.00
75821;DHT22;64454;51.984;9.838;2023-07-31T13:54:27;21.60;1.00
75821;DHT22;64454;51.984;9.838;2023-07-31T13:56:55;21.70;1.00
75821;DHT22;64454;51.984;9.838;2023-07-31T13:59:22;21.70;1.00
75821;DHT22;64454;51.984;9.838;2023-07-31T14:01:50;21.70;1.00
75821;DHT22;64454;51.984;9.838;2023-07-31T14:04:18;21.90;1.00
75821;DHT22;64454;51.984;9.838;2023-07-31T14:06:46;22.20;1.00
75821;DHT22;64454;51.984;9.838;2023-07-31T14:09:17;22.60;1.00
75821;DHT22;64454;51.984;9.838;2023-07-31T14:11:46;22.70;1.00
75821;DHT22;64454;51.984;9.838;2023-07-31T14:14:15;22.80;1.00
75821;DHT22;64454;51.984;9.838;2023-07-31T14:16:45;22.80;1.00
75821;DHT22;64454;51.984;9.838;2023-07-31T14:19:11;22.90;1.00
75821;DHT22;64454;51.984;9.838;2023-07-31T14:21:38;23.10;1.00
75821;DHT22;64454;51.984;9.838;2023-07-31T14:24:06;23.00;1.00
75821;DHT22;64454;51.984;9.838;2023-07-31T14:26:33;22.90;1.00
75821;DHT22;64454;51.984;9.838;2023-07-31T14:29:00;22.80;1.00
75821;DHT22;64454;51.984;9.838;2023-07-31T14:31:28;22.70;1.00
75821;DHT22;64454;51.984;9.838;2023-07-31T14:33:55;22.60;1.00
75821;DHT22;64454;51.984;9.838;2023-07-31T14:36:22;22.30;1.00
75821;DHT22;64454;51.984;9.838;2023-07-31T14:38:48;22.50;1.00
75821;DHT22;64454;51.984;9.838;2023-07-31T14:41:15;22.80;1.00
75821;DHT22;64454;51.984;9.838;2023-07-31T14:43:42;23.00;1.00
75821;DHT22;64454;51.984;9.838;2023-07-31T14:46:09;23.30;1.00
75821;DHT22;64454;51.984;9.838;2023-07-31T14:48:37;23.60;1.00
75821;DHT22;64454;51.984;9.838;2023-07-31T14:51:04;23.20;1.00
75821;DHT22;64454;51.984;9.838;2023-07-31T14:53:31;23.20;1.00
75821;DHT22;64454;51.984;9.838;2023-07-31T14:55:58;23.00;1.00
75821;DHT22;64454;51.984;9.838;2023-07-31T14:58:25;23.10;1.00
75821;DHT22;64454;51.984;9.838;2023-07-31T15:00:51;22.90;1.00
75821;DHT22;64454;51.984;9.838;2023-07-31T15:03:19;22.70;1.00
75821;DHT22;64454;51.984;9.838;2023-07-31T15:05:47;22.50;1.00
75821;DHT22;64454;51.984;9.838;2023-07-31T15:08:14;22.40;1.00
75821;DHT22;64454;51.984;9.838;2023-07-31T15:10:41;22.30;1.00
75821;DHT22;64454;51.984;9.838;2023-07-31T15:13:08;22.20;1.00
75821;DHT22;64454;51.984;9.838;2023-07-31T15:15:34;22.10;1.00
75821;DHT22;64454;51.984;9.838;2023-07-31T15:18:01;22.00;1.00
75821;DHT22;64454;51.984;9.838;2023-07-31T15:20:28;21.80;1.00
75821;DHT22;64454;51.984;9.838;2023-07-31T15:22:57;21.70;1.00
75821;DHT22;64454;51.984;9.838;2023-07-31T15:25:24;21.90;1.00
75821;DHT22;64454;51.984;9.838;2023-07-31T15:27:51;22.00;1.00
75821;DHT22;64454;51.984;9.838;2023-07-31T15:30:18;22.00;1.00
75821;DHT22;64454;51.984;9.838;2023-07-31T15:32:45;22.30;1.00
75821;DHT22;64454;51.984;9.838;2023-07-31T15:35:14;22.50;1.00
75821;DHT22;64454;51.984;9.838;2023-07-31T15:37:41;22.60;1.00
75821;DHT22;64454;51.984;9.838;2023-07-31T15:40:10;22.40;1.00
75821;DHT22;64454;51.984;9.838;2023-07-31T15:42:37;22.20;1.00
75821;DHT22;64454;51.984;9.838;2023-07-31T15:45:06;22.20;1.00